Mikasa — JD3633 — position and weather

sailwx.info

Track history (hours):
 
Tides and Currents Weather Stations Pressure Air Temp Water Temp Dewpoint Dewpoint Depression Visibility Wind Speed Wind Dir Waves Ship Positions

Mikasa

Last reported at 2018-May-24 21:00 UTC. Time now 2018-May-24 21:25 UTC.
Position N 34°40' E 135°23'.

Length 64 m; draft 4 m.

Type: Tanker. MMSI: 431005138.

Date/timePositionNaut miles runAvg speedWind from/ knotsBaromVisibWave heightAir tempDewpointWater temp
2018-May-24 21:00N 34°40' E 135°23'0 0.0
2018-May-24 20:30N 34°40' E 135°23'0 0.0
2018-May-24 20:00N 34°40' E 135°23'0 0.0
2018-May-24 19:30N 34°40' E 135°23'0 0.0
2018-May-24 19:00N 34°40' E 135°23'0 0.0
2018-May-24 18:30N 34°40' E 135°23'0 0.0
2018-May-24 18:00N 34°40' E 135°23'0 0.0
2018-May-24 17:30N 34°40' E 135°23'0 0.0
2018-May-24 17:00N 34°40' E 135°23'0 0.0
2018-May-24 16:30N 34°40' E 135°23'0 0.0
2018-May-24 16:00N 34°40' E 135°23'0 0.0
2018-May-24 15:30N 34°40' E 135°23'0 0.0
2018-May-24 15:00N 34°40' E 135°23'0 0.0
2018-May-24 14:30N 34°40' E 135°23'0 0.0
2018-May-24 13:59N 34°40' E 135°23'0 0.0
2018-May-24 13:30N 34°40' E 135°23'  
2018-May-22 04:47N 34°14' E 134°39'812.3
2018-May-22 04:08N 34°09' E 134°47'212.1
2018-May-22 03:58N 34°09' E 134°49'612.6
2018-May-22 03:30N 34°08' E 134°56'612.2
2018-May-22 03:00N 34°08' E 135°04'3 6.3
2018-May-22 02:31N 34°07' E 135°07'0 0.0
2018-May-22 02:00N 34°07' E 135°07'0 0.0
2018-May-22 01:29N 34°07' E 135°07'0 0.0
2018-May-22 01:00N 34°07' E 135°07'0 0.0
2018-May-22 00:30N 34°07' E 135°07'1 1.1
2018-May-22 00:01N 34°07' E 135°08'0 0.0
2018-May-21 23:31N 34°08' E 135°08'0 0.0
2018-May-21 23:00N 34°08' E 135°08'0 0.0
2018-May-21 22:31N 34°08' E 135°08'0 0.0
2018-May-21 22:00N 34°08' E 135°08'0 0.0
2018-May-21 21:31N 34°08' E 135°08'0 0.0
2018-May-21 21:00N 34°08' E 135°08'0 0.0
2018-May-21 20:30N 34°08' E 135°08'0 0.0
2018-May-21 20:01N 34°08' E 135°08'0 0.0
2018-May-21 19:30N 34°08' E 135°08'0 0.0
2018-May-21 19:00N 34°08' E 135°08'0 0.0
2018-May-21 18:31N 34°08' E 135°08'0 0.0
2018-May-21 18:01N 34°08' E 135°08'0 0.1
2018-May-21 17:30N 34°07' E 135°08'0 0.0
2018-May-21 17:01N 34°07' E 135°08'0 0.0
2018-May-21 16:31N 34°08' E 135°08'0 0.0
2018-May-21 16:00N 34°07' E 135°08'0 0.0
2018-May-21 15:30N 34°08' E 135°08'0 0.1
2018-May-21 15:01N 34°08' E 135°08'0 0.0
2018-May-21 14:31N 34°08' E 135°08'0 0.0
2018-May-21 14:00N 34°08' E 135°08'0 0.0
2018-May-21 13:30N 34°08' E 135°08'0 0.0
2018-May-21 13:00N 34°08' E 135°08'0 0.0
2018-May-21 12:30N 34°08' E 135°08'0 0.0
2018-May-21 12:01N 34°08' E 135°08'0 0.0
2018-May-21 11:31N 34°08' E 135°08'0 0.0
2018-May-21 11:00N 34°07' E 135°08'0 0.0
2018-May-21 10:30N 34°07' E 135°08'0 0.0
2018-May-21 10:00N 34°07' E 135°08'0 0.1
2018-May-21 09:30N 34°07' E 135°08'0 0.1
2018-May-21 09:01N 34°07' E 135°08'0 0.1
2018-May-21 08:31N 34°07' E 135°08'0 0.0
2018-May-21 08:01N 34°07' E 135°08'0 0.0
2018-May-21 07:30N 34°07' E 135°08'3 5.9
2018-May-21 07:00N 34°10' E 135°06'713.1
2018-May-21 06:30N 34°16' E 135°03'612.8
2018-May-21 06:00N 34°23' E 135°05'612.5
2018-May-21 05:30N 34°29' E 135°06'712.9
2018-May-21 05:00N 34°35' E 135°08'4 7.1
2018-May-21 04:30N 34°39' E 135°08'0 0.0
2018-May-21 04:00N 34°39' E 135°08'0 0.0
2018-May-21 03:30N 34°39' E 135°08'0 0.0
2018-May-21 02:58N 34°39' E 135°08'0 1.1
2018-May-21 02:31N 34°38' E 135°09'4 8.8
2018-May-21 02:00N 34°36' E 135°14'611.8
2018-May-21 01:30N 34°34' E 135°21'5 9.3
2018-May-21 01:00N 34°31' E 135°24'0 0.0
2018-May-20 21:55N 34°31' E 135°24'0 0.0
2018-May-20 21:30N 34°31' E 135°24'0 0.0
2018-May-20 21:00N 34°31' E 135°24'0 0.0
2018-May-20 20:22N 34°31' E 135°24'0 0.0
2018-May-20 17:58N 34°31' E 135°24'0 0.0
2018-May-20 15:07N 34°31' E 135°24'0 0.0
2018-May-20 14:44N 34°31' E 135°24'0 0.0
2018-May-20 14:26N 34°31' E 135°24'0 0.0
2018-May-20 13:50N 34°31' E 135°24'0 0.0
2018-May-20 13:29N 34°31' E 135°24'0 0.0
2018-May-20 12:59N 34°31' E 135°24'0 0.0
2018-May-20 12:25N 34°31' E 135°24'0 0.0
2018-May-20 11:47N 34°31' E 135°24'0 0.0
2018-May-20 11:30N 34°31' E 135°24'0 0.0
2018-May-20 10:51N 34°31' E 135°24'0 0.0
2018-May-20 10:28N 34°31' E 135°24'0 0.0
2018-May-20 09:53N 34°31' E 135°24'0 0.0
2018-May-20 09:27N 34°31' E 135°24'0 0.0
2018-May-20 08:56N 34°31' E 135°24'0 0.0
2018-May-20 08:29N 34°31' E 135°24'0 0.0
2018-May-20 07:56N 34°31' E 135°24'0 0.0
2018-May-20 07:29N 34°31' E 135°24'0 0.0
2018-May-20 06:59N 34°31' E 135°24'0 0.1
2018-May-20 06:29N 34°31' E 135°24'510.8
2018-May-20 06:00N 34°36' E 135°23'3 4.5
2018-May-20 05:27N 34°35' E 135°26'0 0.0
2018-May-20 04:46N 34°35' E 135°26'0 0.0
2018-May-20 04:17N 34°35' E 135°26'0 0.0
2018-May-20 04:00N 34°35' E 135°26'0 0.0
2018-May-20 03:30N 34°35' E 135°26'0 0.0
2018-May-20 02:58N 34°35' E 135°26'0 0.2
2018-May-20 02:30N 34°35' E 135°26'0 0.6
2018-May-20 01:57N 34°35' E 135°25'0 0.0
2018-May-20 01:30N 34°35' E 135°25'0 0.0
2018-May-20 00:57N 34°35' E 135°25'0 0.0
2018-May-20 00:30N 34°35' E 135°25'0 0.0
2018-May-19 23:59N 34°35' E 135°25'0 0.1
2018-May-19 23:30N 34°35' E 135°25'0 0.1
2018-May-19 23:00N 34°35' E 135°25'0 0.1
2018-May-19 22:30N 34°35' E 135°25'0 0.1
2018-May-19 22:00N 34°35' E 135°25'3 6.0
2018-May-19 21:30N 34°36' E 135°22'612.5
2018-May-19 21:00N 34°35' E 135°14'713.1
2018-May-19 20:30N 34°35' E 135°07'713.9
2018-May-19 19:58N 34°36' E 134°58'613.6
2018-May-19 19:30N 34°34' E 134°51'612.5
2018-May-19 19:00N 34°31' E 134°44'612.6
2018-May-19 18:30N 34°29' E 134°37'713.2
2018-May-19 18:00N 34°26' E 134°29'713.2
2018-May-19 17:29N 34°24' E 134°22'  
2018-May-17 10:44N 34°24' E 134°15'412.9
2018-May-17 10:24N 34°25' E 134°20'712.3
2018-May-17 09:49N 34°28' E 134°28'411.6
2018-May-17 09:30N 34°30' E 134°32'611.7
2018-May-17 09:00N 34°32' E 134°39'611.9
2018-May-17 08:30N 34°34' E 134°46'811.5
2018-May-17 07:47N 34°37' E 134°55'310.7
2018-May-17 07:29N 34°38' E 134°59'4 8.2
2018-May-17 07:00N 34°36' E 135°03'510.0
2018-May-17 06:30N 34°36' E 135°09'611.4
2018-May-17 05:59N 34°36' E 135°16'511.3
2018-May-17 05:30N 34°36' E 135°23'3 5.8
2018-May-17 05:00N 34°34' E 135°26'0 0.0
2018-May-17 04:29N 34°34' E 135°26'0 0.0
2018-May-17 03:49N 34°34' E 135°26'0 0.0
2018-May-17 03:29N 34°34' E 135°26'0 0.0
2018-May-17 03:00N 34°34' E 135°26'0 0.0
2018-May-17 02:30N 34°34' E 135°26'0 0.0
2018-May-17 02:00N 34°34' E 135°26'1 1.2
2018-May-17 01:30N 34°35' E 135°25'0 0.1
2018-May-17 01:00N 34°35' E 135°25'0 0.0
2018-May-17 00:30N 34°35' E 135°25'0 0.0
2018-May-16 23:58N 34°35' E 135°25'0 0.1
2018-May-16 23:30N 34°35' E 135°25'0 0.0
2018-May-16 22:59N 34°35' E 135°25'0 0.0
2018-May-16 22:30N 34°35' E 135°25'0 0.0
2018-May-16 21:58N 34°35' E 135°25'0 0.0
2018-May-16 21:21N 34°35' E 135°25'0 0.0
2018-May-16 21:00N 34°35' E 135°25'0 0.1
2018-May-16 20:30N 34°35' E 135°25'4 9.1
2018-May-16 20:00N 34°36' E 135°20'612.7
2018-May-16 19:30N 34°35' E 135°12'714.2
2018-May-16 19:00N 34°35' E 135°04'814.2
2018-May-16 18:28N 34°35' E 134°55'714.7
2018-May-16 18:00N 34°33' E 134°47'713.4
2018-May-16 17:30N 34°30' E 134°39'713.7
2018-May-16 17:01N 34°28' E 134°32'713.5
2018-May-16 16:30N 34°25' E 134°24'136 5.2
2018-May-15 14:20N 33°48' E 131°46'411.4
2018-May-15 14:00N 33°47' E 131°51'611.7
2018-May-15 13:31N 33°45' E 131°57'611.2
2018-May-15 12:58N 33°46' E 132°05'511.7
2018-May-15 12:30N 33°49' E 132°10'611.2
2018-May-15 12:00N 33°50' E 132°17'610.1
2018-May-15 11:26N 33°52' E 132°24'610.2
2018-May-15 10:49N 33°56' E 132°29'5 9.8
2018-May-15 10:21N 33°58' E 132°34'3 8.7
2018-May-15 09:59N 34°01' E 132°36'511.1
2018-May-15 09:29N 34°05' E 132°41'  
Track history (hours):
 
Tides and Currents Weather Stations Pressure Air Temp Water Temp Dewpoint Dewpoint Depression Visibility Wind Speed Wind Dir Waves Ship Positions

Mikasa

Last reported at 2018-May-24 21:00 UTC. Time now 2018-May-24 21:25 UTC.
Position N 34°40' E 135°23'.

Length 64 m; draft 4 m.

Type: Tanker. MMSI: 431005138.

Date/timePositionNaut miles runAvg speedWind from/ knotsBaromVisibWave heightAir tempDewpointWater temp
2018-May-24 21:00N 34°40' E 135°23'0 0.0
2018-May-24 20:30N 34°40' E 135°23'0 0.0
2018-May-24 20:00N 34°40' E 135°23'0 0.0
2018-May-24 19:30N 34°40' E 135°23'0 0.0
2018-May-24 19:00N 34°40' E 135°23'0 0.0
2018-May-24 18:30N 34°40' E 135°23'0 0.0
2018-May-24 18:00N 34°40' E 135°23'0 0.0
2018-May-24 17:30N 34°40' E 135°23'0 0.0
2018-May-24 17:00N 34°40' E 135°23'0 0.0
2018-May-24 16:30N 34°40' E 135°23'0 0.0
2018-May-24 16:00N 34°40' E 135°23'0 0.0
2018-May-24 15:30N 34°40' E 135°23'0 0.0
2018-May-24 15:00N 34°40' E 135°23'0 0.0
2018-May-24 14:30N 34°40' E 135°23'0 0.0
2018-May-24 13:59N 34°40' E 135°23'0 0.0
2018-May-24 13:30N 34°40' E 135°23'  
2018-May-22 04:47N 34°14' E 134°39'812.3
2018-May-22 04:08N 34°09' E 134°47'212.1
2018-May-22 03:58N 34°09' E 134°49'612.6
2018-May-22 03:30N 34°08' E 134°56'612.2
2018-May-22 03:00N 34°08' E 135°04'3 6.3
2018-May-22 02:31N 34°07' E 135°07'0 0.0
2018-May-22 02:00N 34°07' E 135°07'0 0.0
2018-May-22 01:29N 34°07' E 135°07'0 0.0
2018-May-22 01:00N 34°07' E 135°07'0 0.0
2018-May-22 00:30N 34°07' E 135°07'1 1.1
2018-May-22 00:01N 34°07' E 135°08'0 0.0
2018-May-21 23:31N 34°08' E 135°08'0 0.0
2018-May-21 23:00N 34°08' E 135°08'0 0.0
2018-May-21 22:31N 34°08' E 135°08'0 0.0
2018-May-21 22:00N 34°08' E 135°08'0 0.0
2018-May-21 21:31N 34°08' E 135°08'0 0.0
2018-May-21 21:00N 34°08' E 135°08'0 0.0
2018-May-21 20:30N 34°08' E 135°08'0 0.0
2018-May-21 20:01N 34°08' E 135°08'0 0.0
2018-May-21 19:30N 34°08' E 135°08'0 0.0
2018-May-21 19:00N 34°08' E 135°08'0 0.0
2018-May-21 18:31N 34°08' E 135°08'0 0.0
2018-May-21 18:01N 34°08' E 135°08'0 0.1
2018-May-21 17:30N 34°07' E 135°08'0 0.0
2018-May-21 17:01N 34°07' E 135°08'0 0.0
2018-May-21 16:31N 34°08' E 135°08'0 0.0
2018-May-21 16:00N 34°07' E 135°08'0 0.0
2018-May-21 15:30N 34°08' E 135°08'0 0.1
2018-May-21 15:01N 34°08' E 135°08'0 0.0
2018-May-21 14:31N 34°08' E 135°08'0 0.0
2018-May-21 14:00N 34°08' E 135°08'0 0.0
2018-May-21 13:30N 34°08' E 135°08'0 0.0
2018-May-21 13:00N 34°08' E 135°08'0 0.0
2018-May-21 12:30N 34°08' E 135°08'0 0.0
2018-May-21 12:01N 34°08' E 135°08'0 0.0
2018-May-21 11:31N 34°08' E 135°08'0 0.0
2018-May-21 11:00N 34°07' E 135°08'0 0.0
2018-May-21 10:30N 34°07' E 135°08'0 0.0
2018-May-21 10:00N 34°07' E 135°08'0 0.1
2018-May-21 09:30N 34°07' E 135°08'0 0.1
2018-May-21 09:01N 34°07' E 135°08'0 0.1
2018-May-21 08:31N 34°07' E 135°08'0 0.0
2018-May-21 08:01N 34°07' E 135°08'0 0.0
2018-May-21 07:30N 34°07' E 135°08'3 5.9
2018-May-21 07:00N 34°10' E 135°06'713.1
2018-May-21 06:30N 34°16' E 135°03'612.8
2018-May-21 06:00N 34°23' E 135°05'612.5
2018-May-21 05:30N 34°29' E 135°06'712.9
2018-May-21 05:00N 34°35' E 135°08'4 7.1
2018-May-21 04:30N 34°39' E 135°08'0 0.0
2018-May-21 04:00N 34°39' E 135°08'0 0.0
2018-May-21 03:30N 34°39' E 135°08'0 0.0
2018-May-21 02:58N 34°39' E 135°08'0 1.1
2018-May-21 02:31N 34°38' E 135°09'4 8.8
2018-May-21 02:00N 34°36' E 135°14'611.8
2018-May-21 01:30N 34°34' E 135°21'5 9.3
2018-May-21 01:00N 34°31' E 135°24'0 0.0
2018-May-20 21:55N 34°31' E 135°24'0 0.0
2018-May-20 21:30N 34°31' E 135°24'0 0.0
2018-May-20 21:00N 34°31' E 135°24'0 0.0
2018-May-20 20:22N 34°31' E 135°24'0 0.0
2018-May-20 17:58N 34°31' E 135°24'0 0.0
2018-May-20 15:07N 34°31' E 135°24'0 0.0
2018-May-20 14:44N 34°31' E 135°24'0 0.0
2018-May-20 14:26N 34°31' E 135°24'0 0.0
2018-May-20 13:50N 34°31' E 135°24'0 0.0
2018-May-20 13:29N 34°31' E 135°24'0 0.0
2018-May-20 12:59N 34°31' E 135°24'0 0.0
2018-May-20 12:25N 34°31' E 135°24'0 0.0
2018-May-20 11:47N 34°31' E 135°24'0 0.0
2018-May-20 11:30N 34°31' E 135°24'0 0.0
2018-May-20 10:51N 34°31' E 135°24'0 0.0
2018-May-20 10:28N 34°31' E 135°24'0 0.0
2018-May-20 09:53N 34°31' E 135°24'0 0.0
2018-May-20 09:27N 34°31' E 135°24'0 0.0
2018-May-20 08:56N 34°31' E 135°24'0 0.0
2018-May-20 08:29N 34°31' E 135°24'0 0.0
2018-May-20 07:56N 34°31' E 135°24'0 0.0
2018-May-20 07:29N 34°31' E 135°24'0 0.0
2018-May-20 06:59N 34°31' E 135°24'0 0.1
2018-May-20 06:29N 34°31' E 135°24'510.8
2018-May-20 06:00N 34°36' E 135°23'3 4.5
2018-May-20 05:27N 34°35' E 135°26'0 0.0
2018-May-20 04:46N 34°35' E 135°26'0 0.0
2018-May-20 04:17N 34°35' E 135°26'0 0.0
2018-May-20 04:00N 34°35' E 135°26'0 0.0
2018-May-20 03:30N 34°35' E 135°26'0 0.0
2018-May-20 02:58N 34°35' E 135°26'0 0.2
2018-May-20 02:30N 34°35' E 135°26'0 0.6
2018-May-20 01:57N 34°35' E 135°25'0 0.0
2018-May-20 01:30N 34°35' E 135°25'0 0.0
2018-May-20 00:57N 34°35' E 135°25'0 0.0
2018-May-20 00:30N 34°35' E 135°25'0 0.0
2018-May-19 23:59N 34°35' E 135°25'0 0.1
2018-May-19 23:30N 34°35' E 135°25'0 0.1
2018-May-19 23:00N 34°35' E 135°25'0 0.1
2018-May-19 22:30N 34°35' E 135°25'0 0.1
2018-May-19 22:00N 34°35' E 135°25'3 6.0
2018-May-19 21:30N 34°36' E 135°22'612.5
2018-May-19 21:00N 34°35' E 135°14'713.1
2018-May-19 20:30N 34°35' E 135°07'713.9
2018-May-19 19:58N 34°36' E 134°58'613.6
2018-May-19 19:30N 34°34' E 134°51'612.5
2018-May-19 19:00N 34°31' E 134°44'612.6
2018-May-19 18:30N 34°29' E 134°37'713.2
2018-May-19 18:00N 34°26' E 134°29'713.2
2018-May-19 17:29N 34°24' E 134°22'  
2018-May-17 10:44N 34°24' E 134°15'412.9
2018-May-17 10:24N 34°25' E 134°20'712.3
2018-May-17 09:49N 34°28' E 134°28'411.6
2018-May-17 09:30N 34°30' E 134°32'611.7
2018-May-17 09:00N 34°32' E 134°39'611.9
2018-May-17 08:30N 34°34' E 134°46'811.5
2018-May-17 07:47N 34°37' E 134°55'310.7
2018-May-17 07:29N 34°38' E 134°59'4 8.2
2018-May-17 07:00N 34°36' E 135°03'510.0
2018-May-17 06:30N 34°36' E 135°09'611.4
2018-May-17 05:59N 34°36' E 135°16'511.3
2018-May-17 05:30N 34°36' E 135°23'3 5.8
2018-May-17 05:00N 34°34' E 135°26'0 0.0
2018-May-17 04:29N 34°34' E 135°26'0 0.0
2018-May-17 03:49N 34°34' E 135°26'0 0.0
2018-May-17 03:29N 34°34' E 135°26'0 0.0
2018-May-17 03:00N 34°34' E 135°26'0 0.0
2018-May-17 02:30N 34°34' E 135°26'0 0.0
2018-May-17 02:00N 34°34' E 135°26'1 1.2
2018-May-17 01:30N 34°35' E 135°25'0 0.1
2018-May-17 01:00N 34°35' E 135°25'0 0.0
2018-May-17 00:30N 34°35' E 135°25'0 0.0
2018-May-16 23:58N 34°35' E 135°25'0 0.1
2018-May-16 23:30N 34°35' E 135°25'0 0.0
2018-May-16 22:59N 34°35' E 135°25'0 0.0
2018-May-16 22:30N 34°35' E 135°25'0 0.0
2018-May-16 21:58N 34°35' E 135°25'0 0.0
2018-May-16 21:21N 34°35' E 135°25'0 0.0
2018-May-16 21:00N 34°35' E 135°25'0 0.1
2018-May-16 20:30N 34°35' E 135°25'4 9.1
2018-May-16 20:00N 34°36' E 135°20'612.7
2018-May-16 19:30N 34°35' E 135°12'714.2
2018-May-16 19:00N 34°35' E 135°04'814.2
2018-May-16 18:28N 34°35' E 134°55'714.7
2018-May-16 18:00N 34°33' E 134°47'713.4
2018-May-16 17:30N 34°30' E 134°39'713.7
2018-May-16 17:01N 34°28' E 134°32'713.5
2018-May-16 16:30N 34°25' E 134°24'136 5.2
2018-May-15 14:20N 33°48' E 131°46'411.4
2018-May-15 14:00N 33°47' E 131°51'611.7
2018-May-15 13:31N 33°45' E 131°57'611.2
2018-May-15 12:58N 33°46' E 132°05'511.7
2018-May-15 12:30N 33°49' E 132°10'611.2
2018-May-15 12:00N 33°50' E 132°17'610.1
2018-May-15 11:26N 33°52' E 132°24'610.2
2018-May-15 10:49N 33°56' E 132°29'5 9.8
2018-May-15 10:21N 33°58' E 132°34'3 8.7
2018-May-15 09:59N 34°01' E 132°36'511.1
2018-May-15 09:29N 34°05' E 132°41'  

Dump ship's entire track history